KUVA/UVA METAR and TAF weather

Enter ICAO airport designator
Station Type Date Time Source
KUVA METAR 2022/06/28 10:15 UTC NOAA

KUVA 281015Z AUTO 24003KT 10SM CLR 23/20 A3015 RMK AO2 T02320197


Station Type Date Time Source
KUVA Decoded METAR 2022/06/28 10:15 UTC NOAA

Uvalde, Garner Field Airport, TX, United States (KUVA) 29-12-40N 099-44-36W
Jun 28, 2022 - 06:15 AM EDT / 2022.06.28 1015 UTC
Wind: from the WSW (240 degrees) at 3 MPH (3 KT):0
Visibility: 10 mile(s):0
Sky conditions: clear
Temperature: 73.8 F (23.2 C)
Dew Point: 67.5 F (19.7 C)
Relative Humidity: 80%
Pressure (altimeter): 30.15 in. Hg (1020 hPa)
ob: KUVA 281015Z AUTO 24003KT 10SM CLR 23/20 A3015 RMK AO2 T02320197
cycle: 10

Station Type Date Time Source
KUVA TAF UTC NOAA

Error!

Example: see airport list